createdAt,value
2019-01-12T00:01:20.481Z,99838.84
2019-01-12T00:03:52.010Z,99835.10
2019-01-12T00:06:23.440Z,99836.90
2019-01-12T00:08:54.806Z,99836.90
2019-01-12T00:11:26.131Z,99844.57
2019-01-12T00:13:57.418Z,99844.57
2019-01-12T00:16:28.985Z,99842.52
2019-01-12T00:19:00.236Z,99843.41
2019-01-12T00:21:31.511Z,99845.88
2019-01-12T00:24:03.128Z,99845.88
2019-01-12T00:26:34.726Z,99846.60
2019-01-12T00:29:06.005Z,99848.25
2019-01-12T00:31:37.569Z,99842.12
2019-01-12T00:34:08.965Z,99849.70
2019-01-12T00:36:43.035Z,99855.78
2019-01-12T00:39:14.491Z,99855.43
2019-01-12T00:41:46.068Z,99864.52
2019-01-12T00:44:17.761Z,99861.92
2019-01-12T00:46:49.365Z,99870.20
2019-01-12T00:49:20.692Z,99870.20
2019-01-12T00:51:52.430Z,99880.14
2019-01-12T00:54:24.040Z,99875.55
2019-01-12T00:56:55.619Z,99878.73
2019-01-12T00:59:27.423Z,99890.33
2019-01-12T01:01:58.604Z,99890.33
2019-01-12T01:04:30.837Z,99893.55
2019-01-12T01:07:02.479Z,99893.55
2019-01-12T01:09:33.697Z,99898.70
2019-01-12T01:12:05.133Z,99898.70
2019-01-12T01:14:36.415Z,99897.45
2019-01-12T01:17:07.702Z,99901.87
2019-01-12T01:19:39.035Z,99909.37
2019-01-12T01:22:10.460Z,99909.37
2019-01-12T01:24:45.809Z,99920.61
2019-01-12T01:27:15.130Z,99917.00
2019-01-12T01:29:47.054Z,99915.95
2019-01-12T01:32:18.326Z,99915.95
2019-01-12T01:34:50.664Z,99931.34
2019-01-12T01:37:22.136Z,99931.92
2019-01-12T01:39:53.759Z,99935.02
2019-01-12T01:42:25.507Z,99935.02
2019-01-12T01:44:57.138Z,99952.36
2019-01-12T01:47:28.714Z,99943.70
2019-01-12T01:50:00.269Z,99945.78
2019-01-12T01:52:32.430Z,99951.05
2019-01-12T01:55:04.208Z,99951.05
2019-01-12T01:57:35.499Z,99953.23
2019-01-12T02:00:12.202Z,99953.23
2019-01-12T02:02:43.859Z,99962.83
2019-01-12T02:05:15.681Z,99962.83
2019-01-12T02:07:47.088Z,99965.10
2019-01-12T02:10:23.820Z,99972.73
2019-01-12T02:12:55.240Z,99975.05
2019-01-12T02:15:27.072Z,99982.30
2019-01-12T02:17:58.344Z,99982.30
2019-01-12T02:20:29.662Z,99988.31
2019-01-12T02:23:01.881Z,99990.53
2019-01-12T02:25:33.406Z,99992.63
2019-01-12T02:28:04.852Z,99997.88
2019-01-12T02:30:36.477Z,100005.61
2019-01-12T02:33:08.531Z,100008.06
2019-01-12T02:35:39.949Z,100008.06
2019-01-12T02:38:11.150Z,100012.11
2019-01-12T02:40:42.329Z,100019.98
2019-01-12T02:43:14.167Z,100013.31
2019-01-12T02:45:45.539Z,100013.31
2019-01-12T02:48:19.071Z,100025.36
2019-01-12T02:50:50.659Z,100041.45
2019-01-12T02:53:22.266Z,100041.45
2019-01-12T02:55:53.797Z,100043.13
2019-01-12T02:58:25.112Z,100048.36
2019-01-12T03:00:57.408Z,100059.41
2019-01-12T03:03:29.087Z,100053.63
2019-01-12T03:06:00.465Z,100053.63
2019-01-12T03:08:32.057Z,100063.14
2019-01-12T03:11:03.581Z,100064.98
2019-01-12T03:13:35.008Z,100068.26
2019-01-12T03:16:06.434Z,100068.26
2019-01-12T03:18:37.669Z,100064.05
2019-01-12T03:21:09.282Z,100064.93
2019-01-12T03:23:41.147Z,100074.51
2019-01-12T03:26:12.338Z,100083.16
2019-01-12T03:28:44.084Z,100084.27
2019-01-12T03:31:15.307Z,100084.27
2019-01-12T03:33:46.878Z,100094.09
2019-01-12T03:36:18.084Z,100094.09
2019-01-12T03:38:49.421Z,100102.22
2019-01-12T03:41:20.540Z,100102.22
2019-01-12T03:43:51.912Z,100101.00
2019-01-12T03:46:23.084Z,100100.78
2019-01-12T03:48:55.051Z,100118.32
2019-01-12T03:51:26.639Z,100118.32
2019-01-12T03:53:59.265Z,100112.20
2019-01-12T03:56:30.686Z,100113.02
2019-01-12T03:59:02.024Z,100122.11
2019-01-12T04:01:33.576Z,100117.77
2019-01-12T04:04:05.316Z,100116.47
2019-01-12T04:06:37.089Z,100116.47
2019-01-12T04:09:13.061Z,100110.38
2019-01-12T04:11:44.310Z,100105.17
2019-01-12T04:14:16.045Z,100113.56
2019-01-12T04:16:47.687Z,100113.56
2019-01-12T04:19:19.329Z,100111.67
2019-01-12T04:21:50.541Z,100102.40
2019-01-12T04:24:22.213Z,100102.26
2019-01-12T04:26:53.721Z,100102.26
2019-01-12T04:29:25.693Z,100100.23
2019-01-12T04:31:56.946Z,100097.25
2019-01-12T04:34:29.231Z,100097.25
2019-01-12T04:37:01.009Z,100101.76
2019-01-12T04:39:32.546Z,100101.76
2019-01-12T04:42:03.791Z,100104.63
2019-01-12T04:44:35.258Z,100107.14
2019-01-12T04:47:06.433Z,100102.03
2019-01-12T04:49:37.974Z,100102.03
2019-01-12T04:52:09.137Z,100102.03
2019-01-12T04:54:41.566Z,100109.30
2019-01-12T04:57:12.998Z,100109.30
2019-01-12T04:59:44.191Z,100108.57
2019-01-12T05:02:15.554Z,100106.64
2019-01-12T05:04:46.862Z,100099.31
2019-01-12T05:07:18.277Z,100099.05
2019-01-12T05:09:49.584Z,100099.05
2019-01-12T05:12:21.185Z,100097.78
2019-01-12T05:14:52.532Z,100100.12
2019-01-12T05:17:23.978Z,100097.86
2019-01-12T05:19:55.386Z,100100.05
2019-01-12T05:22:26.753Z,100099.61
2019-01-12T05:24:58.782Z,100099.61
2019-01-12T05:27:31.219Z,100095.59
2019-01-12T05:30:02.432Z,100089.00
2019-01-12T05:32:33.932Z,100082.53
2019-01-12T05:35:05.326Z,100080.78
2019-01-12T05:37:36.596Z,100085.84
2019-01-12T05:40:08.949Z,100076.27
2019-01-12T05:42:41.511Z,100078.92
2019-01-12T05:45:13.443Z,100078.92
2019-01-12T05:47:44.841Z,100075.42
2019-01-12T05:50:16.334Z,100070.81
2019-01-12T05:52:48.515Z,100066.09
2019-01-12T05:55:20.169Z,100066.09
2019-01-12T05:57:51.939Z,100059.41
2019-01-12T06:00:24.519Z,100059.41
2019-01-12T06:02:56.086Z,100064.77
2019-01-12T06:05:27.766Z,100058.22
2019-01-12T06:07:59.349Z,100053.05
2019-01-12T06:10:30.816Z,100042.20
2019-01-12T06:13:02.931Z,100042.20
2019-01-12T06:15:34.613Z,100021.77
2019-01-12T06:18:06.632Z,100021.77
2019-01-12T06:20:38.227Z,100015.11
2019-01-12T06:23:11.232Z,100018.42
2019-01-12T06:25:43.146Z,100012.72
2019-01-12T06:28:14.637Z,99992.89
2019-01-12T06:30:45.950Z,99992.89
2019-01-12T06:33:17.255Z,99982.81
2019-01-12T06:35:48.860Z,99982.81
2019-01-12T06:38:20.380Z,99979.05
2019-01-12T06:40:52.036Z,99972.19
2019-01-12T06:43:23.475Z,99970.48
2019-01-12T06:45:54.996Z,99961.13
2019-01-12T06:48:26.513Z,99953.95
2019-01-12T06:50:57.874Z,99940.90
2019-01-12T06:53:29.518Z,99940.90
2019-01-12T06:56:01.606Z,99947.80
2019-01-12T06:58:33.232Z,99932.48
2019-01-12T07:01:05.151Z,99912.53
2019-01-12T07:03:36.261Z,99915.63
2019-01-12T07:06:08.083Z,99907.79
2019-01-12T07:08:39.327Z,99907.79
2019-01-12T07:11:10.811Z,99897.87
2019-01-12T07:13:42.366Z,99885.87
2019-01-12T07:16:13.933Z,99883.47
2019-01-12T07:18:45.157Z,99883.47
2019-01-12T07:21:16.572Z,99867.63
2019-01-12T07:23:47.845Z,99867.63
2019-01-12T07:26:19.870Z,99858.79
2019-01-12T07:28:51.286Z,99849.51
2019-01-12T07:31:23.866Z,99850.30
2019-01-12T07:33:56.208Z,99846.41
2019-01-12T07:36:27.874Z,99835.05
2019-01-12T07:38:59.449Z,99834.41
2019-01-12T07:41:30.768Z,99834.28
2019-01-12T07:44:02.192Z,99830.72
2019-01-12T07:46:33.878Z,99828.28
2019-01-12T07:49:05.107Z,99818.41
2019-01-12T07:51:36.327Z,99815.16
2019-01-12T07:54:10.483Z,99818.17
2019-01-12T07:56:42.550Z,99820.23
2019-01-12T07:59:14.026Z,99817.36
2019-01-12T08:01:45.494Z,99809.81
2019-01-12T08:04:16.952Z,99805.95
2019-01-12T08:06:48.646Z,99796.34
2019-01-12T08:09:20.331Z,99790.70
2019-01-12T08:11:51.742Z,99787.91
2019-01-12T08:14:23.432Z,99787.06
2019-01-12T08:16:55.214Z,99783.89
2019-01-12T08:19:26.700Z,99780.73
2019-01-12T08:21:58.382Z,99781.89
2019-01-12T08:24:30.051Z,99775.89
2019-01-12T08:27:01.866Z,99778.64
2019-01-12T08:29:33.078Z,99778.64
2019-01-12T08:32:04.693Z,99776.67
2019-01-12T08:34:36.134Z,99772.63
2019-01-12T08:37:10.347Z,99768.62
2019-01-12T08:39:41.740Z,99772.45
2019-01-12T08:42:13.054Z,99764.47
2019-01-12T08:44:44.235Z,99766.70
2019-01-12T08:47:15.980Z,99751.19
2019-01-12T08:49:47.429Z,99752.64
2019-01-12T08:52:18.912Z,99752.64
2019-01-12T08:54:50.514Z,99748.55
2019-01-12T08:57:22.487Z,99750.82
2019-01-12T08:59:53.950Z,99752.67
2019-01-12T09:02:25.746Z,99748.44
2019-01-12T09:04:57.122Z,99747.82
2019-01-12T09:07:28.719Z,99747.41
2019-01-12T09:10:00.499Z,99740.02
2019-01-12T09:12:32.742Z,99738.09
2019-01-12T09:15:04.491Z,99736.44
2019-01-12T09:17:36.660Z,99732.69
2019-01-12T09:20:12.813Z,99739.97
2019-01-12T09:22:45.381Z,99739.97
2019-01-12T09:25:17.734Z,99734.61
2019-01-12T09:27:50.425Z,99739.69
2019-01-12T09:30:24.567Z,99739.69
2019-01-12T09:32:56.605Z,99738.95
2019-01-12T09:35:27.996Z,99738.95
2019-01-12T09:37:59.567Z,99736.67
2019-01-12T09:40:31.228Z,99734.73
2019-01-12T09:43:02.763Z,99737.14
2019-01-12T09:45:34.665Z,99737.83
2019-01-12T09:48:06.443Z,99733.21
2019-01-12T09:50:37.829Z,99730.59
2019-01-12T09:53:09.261Z,99730.59
2019-01-12T09:55:43.486Z,99716.78
2019-01-12T09:58:15.175Z,99722.34
2019-01-12T10:00:47.034Z,99718.20
2019-01-12T10:03:18.709Z,99718.59
2019-01-12T10:05:50.446Z,99719.63
2019-01-12T10:08:21.950Z,99711.12
2019-01-12T10:10:53.966Z,99710.19
2019-01-12T10:13:25.479Z,99708.50
2019-01-12T10:15:57.252Z,99703.41
2019-01-12T10:18:28.606Z,99703.41
2019-01-12T10:21:00.154Z,99701.78
2019-01-12T10:23:31.387Z,99700.96
2019-01-12T10:26:04.258Z,99696.63
2019-01-12T10:28:35.944Z,99696.63
2019-01-12T10:31:08.064Z,99690.43
2019-01-12T10:33:39.448Z,99690.98
2019-01-12T10:36:11.212Z,99695.86
2019-01-12T10:38:42.598Z,99691.48
2019-01-12T10:41:14.491Z,99698.09
2019-01-12T10:43:45.878Z,99687.58
2019-01-12T10:46:17.402Z,99693.77
2019-01-12T10:48:48.723Z,99689.16
2019-01-12T10:51:20.998Z,99689.28
2019-01-12T10:53:54.371Z,99695.72
2019-01-12T10:56:28.305Z,99693.48
2019-01-12T10:59:02.019Z,99693.83
2019-01-12T11:01:34.950Z,99695.23
2019-01-12T11:04:07.739Z,99695.23
2019-01-12T11:06:40.388Z,99695.20
2019-01-12T11:09:12.712Z,99690.26
2019-01-12T11:11:45.422Z,99692.60
2019-01-12T11:14:17.441Z,99696.01
2019-01-12T11:16:48.945Z,99706.61
2019-01-12T11:19:20.644Z,99706.61
2019-01-12T11:21:52.135Z,99703.72
2019-01-12T11:24:24.493Z,99697.20
2019-01-12T11:26:56.079Z,99705.72
2019-01-12T11:29:27.968Z,99705.72
2019-01-12T11:31:59.969Z,99700.32
2019-01-12T11:34:31.960Z,99700.32
2019-01-12T11:37:03.426Z,99699.05
2019-01-12T11:39:35.041Z,99694.58
2019-01-12T11:42:06.727Z,99703.48
2019-01-12T11:44:39.223Z,99703.48
2019-01-12T11:47:10.890Z,99700.66
2019-01-12T11:49:42.900Z,99700.66
2019-01-12T11:52:14.534Z,99701.48
2019-01-12T11:54:45.707Z,99705.58
2019-01-12T11:57:19.325Z,99712.63
2019-01-12T11:59:50.993Z,99709.77
2019-01-12T12:02:22.620Z,99720.06
2019-01-12T12:04:53.946Z,99705.86
2019-01-12T12:07:25.317Z,99712.47
2019-01-12T12:09:56.789Z,99709.01
2019-01-12T12:12:28.144Z,99718.21
2019-01-12T12:15:00.355Z,99715.30
2019-01-12T12:17:31.725Z,99715.30
2019-01-12T12:20:03.416Z,99722.22
2019-01-12T12:22:34.569Z,99727.90
2019-01-12T12:25:06.886Z,99726.83
2019-01-12T12:27:41.761Z,99735.08
2019-01-12T12:30:17.671Z,99735.08
2019-01-12T12:32:49.290Z,99738.20
2019-01-12T12:35:20.886Z,99742.77
2019-01-12T12:37:52.781Z,99736.29
2019-01-12T12:40:25.778Z,99737.80
2019-01-12T12:42:58.369Z,99743.94
2019-01-12T12:45:32.813Z,99746.30
2019-01-12T12:48:05.139Z,99753.12
2019-01-12T12:50:37.098Z,99746.80
2019-01-12T12:53:08.604Z,99750.08
2019-01-12T12:55:40.062Z,99750.08
2019-01-12T12:58:11.473Z,99751.49
2019-01-12T13:00:43.282Z,99753.34
2019-01-12T13:03:15.094Z,99753.45
2019-01-12T13:05:46.877Z,99752.97
2019-01-12T13:08:18.714Z,99758.09
2019-01-12T13:10:50.527Z,99762.84
2019-01-12T13:13:22.197Z,99766.76
2019-01-12T13:15:53.750Z,99778.52
2019-01-12T13:18:25.462Z,99781.22
2019-01-12T13:20:56.956Z,99784.48
2019-01-12T13:23:28.442Z,99784.48
2019-01-12T13:26:01.432Z,99783.86
2019-01-12T13:28:33.141Z,99776.20
2019-01-12T13:31:04.863Z,99786.08
2019-01-12T13:33:36.385Z,99789.20
2019-01-12T13:36:08.479Z,99789.20
2019-01-12T13:38:39.906Z,99790.30
2019-01-12T13:41:11.175Z,99790.61
2019-01-12T13:43:43.167Z,99791.80
2019-01-12T13:46:14.788Z,99791.80
2019-01-12T13:48:46.130Z,99801.23
2019-01-12T13:51:17.524Z,99801.23
2019-01-12T13:53:48.997Z,99809.05
2019-01-12T13:56:20.161Z,99809.81
2019-01-12T13:58:51.872Z,99810.22
2019-01-12T14:01:23.348Z,99810.22
2019-01-12T14:03:54.932Z,99821.19
2019-01-12T14:06:27.259Z,99824.86
2019-01-12T14:08:58.610Z,99824.86
2019-01-12T14:11:30.096Z,99827.17
2019-01-12T14:14:01.844Z,99827.41
2019-01-12T14:16:33.548Z,99826.23
2019-01-12T14:19:05.223Z,99826.23
2019-01-12T14:21:36.545Z,99838.80
2019-01-12T14:24:08.061Z,99847.27
2019-01-12T14:26:39.428Z,99847.27
2019-01-12T14:29:11.432Z,99851.02
2019-01-12T14:31:43.318Z,99853.27
2019-01-12T14:34:14.492Z,99854.77
2019-01-12T14:36:46.034Z,99861.42
2019-01-12T14:39:17.822Z,99859.30
2019-01-12T14:41:49.411Z,99864.33
2019-01-12T14:44:20.785Z,99864.33
2019-01-12T14:46:53.648Z,99858.02
2019-01-12T14:49:28.201Z,99862.37
2019-01-12T14:52:03.390Z,99856.59
2019-01-12T14:54:34.803Z,99856.59
2019-01-12T14:57:06.817Z,99865.77
2019-01-12T14:59:38.243Z,99865.55
2019-01-12T15:02:09.556Z,99865.55
2019-01-12T15:04:41.066Z,99873.14
2019-01-12T15:07:12.735Z,99874.64
2019-01-12T15:09:44.100Z,99873.77
2019-01-12T15:12:15.582Z,99874.23
2019-01-12T15:14:46.995Z,99876.24
2019-01-12T15:17:18.716Z,99878.58
2019-01-12T15:19:50.155Z,99874.53
2019-01-12T15:22:22.097Z,99874.53
2019-01-12T15:24:54.415Z,99883.64
2019-01-12T15:27:26.101Z,99884.41
2019-01-12T15:29:57.683Z,99887.31
2019-01-12T15:32:29.317Z,99884.64
2019-01-12T15:35:00.791Z,99884.64
2019-01-12T15:37:32.388Z,99880.11
2019-01-12T15:40:03.758Z,99880.11
2019-01-12T15:42:35.174Z,99880.11
2019-01-12T15:45:08.321Z,99879.29
2019-01-12T15:47:40.988Z,99878.77
2019-01-12T15:50:18.553Z,99878.77
2019-01-12T15:52:50.319Z,99882.55
2019-01-12T15:55:21.948Z,99882.55
2019-01-12T15:57:53.616Z,99875.08
2019-01-12T16:00:30.862Z,99875.08
2019-01-12T16:03:02.687Z,99883.77
2019-01-12T16:05:34.422Z,99883.77
2019-01-12T16:08:06.206Z,99882.16
2019-01-12T16:10:38.556Z,99882.16
2019-01-12T16:13:10.193Z,99877.48
2019-01-12T16:15:41.621Z,99871.13
2019-01-12T16:18:14.083Z,99872.98
2019-01-12T16:20:45.706Z,99872.98
2019-01-12T16:23:17.170Z,99862.08
2019-01-12T16:25:49.075Z,99866.52
2019-01-12T16:28:23.364Z,99863.84
2019-01-12T16:30:53.932Z,99863.84
2019-01-12T16:33:26.035Z,99864.22
2019-01-12T16:35:57.284Z,99868.53
2019-01-12T16:38:29.154Z,99868.53
2019-01-12T16:41:00.431Z,99870.72
2019-01-12T16:43:32.510Z,99870.72
2019-01-12T16:46:04.673Z,99869.53
2019-01-12T16:48:36.721Z,99868.33
2019-01-12T16:51:08.301Z,99867.64
2019-01-12T16:53:39.811Z,99867.64
2019-01-12T16:56:11.361Z,99868.97
2019-01-12T16:58:44.238Z,99868.97
2019-01-12T17:01:15.784Z,99869.83
2019-01-12T17:03:47.647Z,99869.83
2019-01-12T17:06:19.268Z,99872.69
2019-01-12T17:08:51.558Z,99874.12
2019-01-12T17:11:23.186Z,99874.12
2019-01-12T17:13:55.217Z,99875.23
2019-01-12T17:16:27.087Z,99886.41
2019-01-12T17:18:58.997Z,99891.19
2019-01-12T17:21:30.647Z,99891.19
2019-01-12T17:24:02.215Z,99889.64
2019-01-12T17:26:35.988Z,99889.64
2019-01-12T17:29:07.623Z,99892.30
2019-01-12T17:31:40.032Z,99894.80
2019-01-12T17:34:11.892Z,99889.81
2019-01-12T17:36:43.499Z,99889.81
2019-01-12T17:39:16.123Z,99895.08
2019-01-12T17:41:47.883Z,99887.83
2019-01-12T17:44:19.420Z,99887.83
2019-01-12T17:46:51.065Z,99885.93
2019-01-12T17:49:22.545Z,99885.93
2019-01-12T17:51:54.489Z,99875.17
2019-01-12T17:54:26.067Z,99881.95
2019-01-12T17:56:57.573Z,99881.95
2019-01-12T17:59:29.092Z,99885.20
2019-01-12T18:02:00.792Z,99882.50
2019-01-12T18:04:32.265Z,99876.30
2019-01-12T18:07:03.919Z,99876.30
2019-01-12T18:09:35.787Z,99888.69
2019-01-12T18:12:07.599Z,99881.41
2019-01-12T18:14:39.293Z,99881.41
2019-01-12T18:17:10.437Z,99869.56
2019-01-12T18:19:43.413Z,99869.56
2019-01-12T18:22:14.861Z,99869.38
2019-01-12T18:24:46.277Z,99869.84
2019-01-12T18:27:18.198Z,99863.19
2019-01-12T18:29:49.860Z,99859.21
2019-01-12T18:32:21.794Z,99854.55
2019-01-12T18:34:53.511Z,99852.34
2019-01-12T18:37:24.987Z,99845.21
2019-01-12T18:39:56.443Z,99845.21
2019-01-12T18:42:27.825Z,99844.19
2019-01-12T18:44:59.207Z,99844.39
2019-01-12T18:47:30.592Z,99853.38
2019-01-12T18:50:01.973Z,99853.97
2019-01-12T18:52:33.395Z,99852.79
2019-01-12T18:55:05.319Z,99852.79
2019-01-12T18:57:36.437Z,99859.95
2019-01-12T19:00:18.409Z,99853.61
2019-01-12T19:02:45.830Z,99853.61
2019-01-12T19:05:17.660Z,99853.17
2019-01-12T19:07:49.455Z,99853.64
2019-01-12T19:10:20.692Z,99853.64
2019-01-12T19:12:52.238Z,99849.41
2019-01-12T19:15:34.208Z,99863.58
2019-01-12T19:18:06.006Z,99863.58
2019-01-12T19:20:37.788Z,99858.39
2019-01-12T19:23:09.508Z,99858.39
2019-01-12T19:25:40.784Z,99855.38
2019-01-12T19:28:12.447Z,99855.45
2019-01-12T19:30:43.820Z,99856.41
2019-01-12T19:33:15.843Z,99864.57
2019-01-12T19:35:46.930Z,99864.57
2019-01-12T19:38:18.720Z,99862.91
2019-01-12T19:40:50.250Z,99859.58
2019-01-12T19:43:21.517Z,99859.98
2019-01-12T19:45:52.740Z,99859.98
2019-01-12T19:48:24.144Z,99861.01
2019-01-12T19:50:55.979Z,99861.01
2019-01-12T19:53:27.886Z,99864.34
2019-01-12T19:55:59.491Z,99864.34
2019-01-12T19:58:31.031Z,99856.67
2019-01-12T20:01:03.549Z,99856.67
2019-01-12T20:03:35.143Z,99860.27
2019-01-12T20:06:07.651Z,99854.25
2019-01-12T20:08:42.636Z,99846.47
2019-01-12T20:11:14.179Z,99846.47
2019-01-12T20:13:46.048Z,99851.53
2019-01-12T20:16:17.596Z,99843.83
2019-01-12T20:18:49.378Z,99839.75
2019-01-12T20:21:20.758Z,99839.75
2019-01-12T20:23:52.260Z,99845.68
2019-01-12T20:26:23.482Z,99842.53
2019-01-12T20:28:55.398Z,99835.75
2019-01-12T20:31:45.761Z,99844.83
2019-01-12T20:34:54.616Z,99848.75
2019-01-12T20:38:03.224Z,99846.78
2019-01-12T20:41:09.059Z,99846.78
2019-01-12T20:44:26.727Z,99851.86
2019-01-12T20:47:38.334Z,99852.41
2019-01-12T20:50:30.207Z,99853.70
2019-01-12T20:53:35.394Z,99850.17
2019-01-12T20:56:31.846Z,99850.17
2019-01-12T20:59:28.334Z,99851.94
2019-01-12T21:02:31.452Z,99851.94
2019-01-12T21:05:36.686Z,99849.71
2019-01-12T21:08:48.379Z,99849.71
2019-01-12T21:12:22.849Z,99849.63
2019-01-12T21:15:15.980Z,99849.63
2019-01-12T21:17:47.325Z,99865.67
2019-01-12T21:20:19.052Z,99863.09
2019-01-12T21:22:50.948Z,99863.09
2019-01-12T21:25:22.355Z,99865.25
2019-01-12T21:27:54.197Z,99865.25
2019-01-12T21:30:25.523Z,99867.35
2019-01-12T21:32:56.818Z,99861.66
2019-01-12T21:35:28.005Z,99861.66
2019-01-12T21:37:59.325Z,99862.25
2019-01-12T21:40:31.279Z,99862.25
2019-01-12T21:43:02.918Z,99870.63
2019-01-12T21:45:34.230Z,99865.22
2019-01-12T21:48:05.475Z,99863.69
2019-01-12T21:50:36.728Z,99858.48
2019-01-12T21:53:07.977Z,99858.48
2019-01-12T21:55:39.240Z,99855.20
2019-01-12T21:58:11.205Z,99855.20
2019-01-12T22:00:42.512Z,99855.36
2019-01-12T22:03:13.769Z,99847.30
2019-01-12T22:05:45.196Z,99848.97
2019-01-12T22:08:17.551Z,99851.73
2019-01-12T22:10:49.587Z,99857.17
2019-01-12T22:13:21.252Z,99857.17
2019-01-12T22:15:52.673Z,99845.70
2019-01-12T22:18:24.169Z,99846.63
2019-01-12T22:20:55.675Z,99846.63
2019-01-12T22:23:27.467Z,99842.50
2019-01-12T22:25:58.897Z,99841.13
2019-01-12T22:28:30.150Z,99841.13
2019-01-12T22:31:01.403Z,99845.27
2019-01-12T22:33:33.749Z,99848.97
2019-01-12T22:36:05.031Z,99854.28
2019-01-12T22:38:36.362Z,99863.77
2019-01-12T22:41:08.242Z,99863.77
2019-01-12T22:43:39.668Z,99865.14
2019-01-12T22:46:11.612Z,99873.73
2019-01-12T22:48:44.172Z,99873.73
2019-01-12T22:51:15.896Z,99877.79
2019-01-12T22:53:47.240Z,99877.79
2019-01-12T22:56:18.916Z,99882.05
2019-01-12T22:58:50.192Z,99887.39
2019-01-12T23:01:50.430Z,99894.87
2019-01-12T23:04:23.930Z,99894.47
2019-01-12T23:06:55.187Z,99901.39
2019-01-12T23:09:26.512Z,99901.39
2019-01-12T23:11:59.304Z,99898.72
2019-01-12T23:14:30.746Z,99898.72
2019-01-12T23:17:02.039Z,99910.58
2019-01-12T23:19:33.416Z,99919.52
2019-01-12T23:22:05.253Z,99919.48
2019-01-12T23:24:37.659Z,99921.72
2019-01-12T23:27:09.957Z,99921.72
2019-01-12T23:29:41.314Z,99927.81
2019-01-12T23:32:12.889Z,99934.23
2019-01-12T23:34:44.182Z,99940.13
2019-01-12T23:37:15.678Z,99940.13
2019-01-12T23:39:47.075Z,99946.96
2019-01-12T23:42:18.539Z,99946.96
2019-01-12T23:44:50.095Z,99952.83
2019-01-12T23:47:21.808Z,99943.09
2019-01-12T23:49:53.004Z,99936.78
2019-01-12T23:52:24.825Z,99950.89
2019-01-12T23:54:56.313Z,99941.05
2019-01-12T23:57:27.832Z,99944.56
2019-01-12T23:59:59.406Z,99938.84
